Terminal Aerodrome Forecast
Issued by NWS Denver/Boulder, CO

Home | Current Version | Previous Version | Text Only | Print | Product List | Glossary On
Versions: 1 2 3 4 5 6 7 8 9 10 11 12 13 14 15 16 17 18 19 20 21 22 23 24 25 26 27 28 29 30 31 32 33 34 35 36 37 38 39 40 41 42 43 44 45 46 47 48 49 50
377
FTUS45 KBOU 190801 AAA
TAFDEN
TAF AMD
KDEN 190801Z 1908/2012 22010KT P6SM FEW250
     FM191500 21008KT P6SM SCT220
     FM192000 12008KT P6SM SCT120 SCT200
     FM200100 22007KT P6SM SCT120 BKN200
     FM200600 22008KT P6SM SCT080 BKN120
     FM200900 24008KT P6SM VCSH SCT050 BKN070=

USA.gov is the U.S. government's official web portal to all federal, state and local government web resources and services.